Terminal Aerodrome Forecast
Issued by NWS

Home | Current Version | Previous Version | Text Only | Print | Product List | Glossary On
Versions: 1 2 3 4 5 6 7 8 9 10 11 12 13 14 15 16
000
FTUS43 KJKL 011120
TAFSJS
TAF
KSJS 011120Z 0112/0212 00000KT 5SM BR SCT100
      TEMPO 0112/0113 1/2SM FG VV003
     FM011500 VRB06KT P6SM SCT100 SCT250
     FM020100 00000KT P6SM SCT250
     FM020800 00000KT 4SM BR SKC=

USA.gov is the U.S. government's official web portal to all federal, state and local government web resources and services.